sensor_id;sensor_type;location;lat;lon;timestamp;P1;durP1;ratioP1;P2;durP2;ratioP2
71836;SDS011;59686;51.716;7.016;2023-07-29T00:01:56;2.10;;;1.75;;
71836;SDS011;59686;51.716;7.016;2023-07-29T00:04:22;2.40;;;2.20;;
71836;SDS011;59686;51.716;7.016;2023-07-29T00:06:52;1.70;;;1.60;;
71836;SDS011;59686;51.716;7.016;2023-07-29T00:09:18;1.92;;;1.80;;
71836;SDS011;59686;51.716;7.016;2023-07-29T00:11:46;1.80;;;1.70;;
71836;SDS011;59686;51.716;7.016;2023-07-29T00:14:12;2.00;;;1.83;;
71836;SDS011;59686;51.716;7.016;2023-07-29T00:16:37;2.00;;;1.80;;
71836;SDS011;59686;51.716;7.016;2023-07-29T00:19:06;1.73;;;1.63;;
71836;SDS011;59686;51.716;7.016;2023-07-29T00:21:34;3.15;;;1.80;;
71836;SDS011;59686;51.716;7.016;2023-07-29T00:24:00;1.85;;;1.75;;
71836;SDS011;59686;51.716;7.016;2023-07-29T00:26:26;1.85;;;1.75;;
71836;SDS011;59686;51.716;7.016;2023-07-29T00:28:54;1.77;;;1.67;;
71836;SDS011;59686;51.716;7.016;2023-07-29T00:31:21;3.42;;;2.00;;
71836;SDS011;59686;51.716;7.016;2023-07-29T00:33:47;2.10;;;1.90;;
71836;SDS011;59686;51.716;7.016;2023-07-29T00:36:12;2.00;;;1.80;;
71836;SDS011;59686;51.716;7.016;2023-07-29T00:38:38;2.15;;;1.95;;
71836;SDS011;59686;51.716;7.016;2023-07-29T00:41:04;2.00;;;1.80;;
71836;SDS011;59686;51.716;7.016;2023-07-29T00:43:30;2.42;;;2.00;;
71836;SDS011;59686;51.716;7.016;2023-07-29T00:45:56;2.30;;;2.10;;
71836;SDS011;59686;51.716;7.016;2023-07-29T00:48:22;1.67;;;1.55;;
71836;SDS011;59686;51.716;7.016;2023-07-29T00:50:49;2.17;;;1.98;;
71836;SDS011;59686;51.716;7.016;2023-07-29T00:53:15;2.15;;;1.83;;
71836;SDS011;59686;51.716;7.016;2023-07-29T00:55:43;1.70;;;1.60;;
71836;SDS011;59686;51.716;7.016;2023-07-29T00:58:09;2.53;;;1.90;;
71836;SDS011;59686;51.716;7.016;2023-07-29T01:00:35;1.90;;;1.80;;
71836;SDS011;59686;51.716;7.016;2023-07-29T01:03:01;1.90;;;1.80;;
71836;SDS011;59686;51.716;7.016;2023-07-29T01:05:30;2.63;;;1.88;;
71836;SDS011;59686;51.716;7.016;2023-07-29T01:08:06;2.10;;;1.90;;
71836;SDS011;59686;51.716;7.016;2023-07-29T01:10:44;2.13;;;1.75;;
71836;SDS011;59686;51.716;7.016;2023-07-29T01:13:21;3.65;;;1.90;;
71836;SDS011;59686;51.716;7.016;2023-07-29T01:15:58;2.05;;;1.90;;
71836;SDS011;59686;51.716;7.016;2023-07-29T01:18:32;2.13;;;1.92;;
71836;SDS011;59686;51.716;7.016;2023-07-29T01:21:03;2.78;;;1.88;;
71836;SDS011;59686;51.716;7.016;2023-07-29T01:23:36;2.00;;;1.80;;
71836;SDS011;59686;51.716;7.016;2023-07-29T01:26:02;2.08;;;1.88;;
71836;SDS011;59686;51.716;7.016;2023-07-29T01:28:28;2.97;;;1.85;;
71836;SDS011;59686;51.716;7.016;2023-07-29T01:31:07;2.10;;;1.90;;
71836;SDS011;59686;51.716;7.016;2023-07-29T01:33:35;2.20;;;2.00;;
71836;SDS011;59686;51.716;7.016;2023-07-29T01:36:15;2.05;;;1.88;;
71836;SDS011;59686;51.716;7.016;2023-07-29T01:38:51;2.25;;;2.05;;
71836;SDS011;59686;51.716;7.016;2023-07-29T01:41:25;1.95;;;1.70;;
71836;SDS011;59686;51.716;7.016;2023-07-29T01:44:12;1.85;;;1.70;;
71836;SDS011;59686;51.716;7.016;2023-07-29T01:46:43;2.00;;;1.90;;
71836;SDS011;59686;51.716;7.016;2023-07-29T01:49:09;2.13;;;1.92;;
71836;SDS011;59686;51.716;7.016;2023-07-29T01:51:37;2.00;;;1.80;;
71836;SDS011;59686;51.716;7.016;2023-07-29T01:54:08;2.63;;;1.80;;
71836;SDS011;59686;51.716;7.016;2023-07-29T01:56:40;2.25;;;1.63;;
71836;SDS011;59686;51.716;7.016;2023-07-29T01:59:08;2.42;;;1.80;;
71836;SDS011;59686;51.716;7.016;2023-07-29T02:01:36;1.85;;;1.73;;
71836;SDS011;59686;51.716;7.016;2023-07-29T02:04:02;1.70;;;1.60;;
71836;SDS011;59686;51.716;7.016;2023-07-29T02:06:28;2.05;;;1.85;;
71836;SDS011;59686;51.716;7.016;2023-07-29T02:08:54;2.15;;;1.95;;
71836;SDS011;59686;51.716;7.016;2023-07-29T02:11:20;2.00;;;1.90;;
71836;SDS011;59686;51.716;7.016;2023-07-29T02:13:53;2.00;;;1.80;;
71836;SDS011;59686;51.716;7.016;2023-07-29T02:16:21;2.55;;;1.77;;
71836;SDS011;59686;51.716;7.016;2023-07-29T02:18:48;2.00;;;1.80;;
71836;SDS011;59686;51.716;7.016;2023-07-29T02:21:18;2.08;;;1.85;;
71836;SDS011;59686;51.716;7.016;2023-07-29T02:23:49;2.00;;;1.80;;
71836;SDS011;59686;51.716;7.016;2023-07-29T02:26:15;1.60;;;1.50;;
71836;SDS011;59686;51.716;7.016;2023-07-29T02:28:43;2.00;;;1.80;;
71836;SDS011;59686;51.716;7.016;2023-07-29T02:31:09;2.30;;;2.10;;
71836;SDS011;59686;51.716;7.016;2023-07-29T02:33:36;1.73;;;1.63;;
71836;SDS011;59686;51.716;7.016;2023-07-29T02:36:07;2.38;;;1.90;;
71836;SDS011;59686;51.716;7.016;2023-07-29T02:38:40;2.25;;;1.88;;
71836;SDS011;59686;51.716;7.016;2023-07-29T02:41:28;1.90;;;1.70;;
71836;SDS011;59686;51.716;7.016;2023-07-29T02:44:06;1.75;;;1.65;;
71836;SDS011;59686;51.716;7.016;2023-07-29T02:46:35;2.10;;;1.90;;
71836;SDS011;59686;51.716;7.016;2023-07-29T02:49:10;2.03;;;1.88;;
71836;SDS011;59686;51.716;7.016;2023-07-29T02:51:58;1.95;;;1.75;;
71836;SDS011;59686;51.716;7.016;2023-07-29T02:54:24;2.10;;;1.90;;
71836;SDS011;59686;51.716;7.016;2023-07-29T02:56:50;1.75;;;1.65;;
71836;SDS011;59686;51.716;7.016;2023-07-29T02:59:16;2.10;;;1.80;;
71836;SDS011;59686;51.716;7.016;2023-07-29T03:01:44;2.08;;;1.77;;
71836;SDS011;59686;51.716;7.016;2023-07-29T03:04:10;2.22;;;1.90;;
71836;SDS011;59686;51.716;7.016;2023-07-29T03:06:44;1.73;;;1.63;;
71836;SDS011;59686;51.716;7.016;2023-07-29T03:09:33;1.92;;;1.80;;
71836;SDS011;59686;51.716;7.016;2023-07-29T03:15:01;2.05;;;1.85;;
71836;SDS011;59686;51.716;7.016;2023-07-29T03:17:38;1.98;;;1.85;;
71836;SDS011;59686;51.716;7.016;2023-07-29T03:21:10;1.80;;;1.70;;
71836;SDS011;59686;51.716;7.016;2023-07-29T03:24:13;1.70;;;1.60;;
71836;SDS011;59686;51.716;7.016;2023-07-29T03:26:42;1.90;;;1.70;;
71836;SDS011;59686;51.716;7.016;2023-07-29T03:29:17;2.08;;;1.88;;
71836;SDS011;59686;51.716;7.016;2023-07-29T03:31:49;2.13;;;1.90;;
71836;SDS011;59686;51.716;7.016;2023-07-29T03:34:26;1.90;;;1.80;;
71836;SDS011;59686;51.716;7.016;2023-07-29T03:37:15;2.38;;;2.00;;
71836;SDS011;59686;51.716;7.016;2023-07-29T03:39:51;2.00;;;1.90;;
71836;SDS011;59686;51.716;7.016;2023-07-29T03:42:20;2.20;;;2.00;;
71836;SDS011;59686;51.716;7.016;2023-07-29T03:44:46;2.40;;;2.00;;
71836;SDS011;59686;51.716;7.016;2023-07-29T03:47:21;2.20;;;2.00;;
71836;SDS011;59686;51.716;7.016;2023-07-29T03:49:51;2.10;;;1.90;;
71836;SDS011;59686;51.716;7.016;2023-07-29T03:52:20;2.25;;;1.90;;
71836;SDS011;59686;51.716;7.016;2023-07-29T03:54:51;2.25;;;2.05;;
71836;SDS011;59686;51.716;7.016;2023-07-29T03:57:19;2.45;;;2.20;;
71836;SDS011;59686;51.716;7.016;2023-07-29T03:59:45;2.28;;;2.03;;
71836;SDS011;59686;51.716;7.016;2023-07-29T04:02:18;2.70;;;1.92;;
71836;SDS011;59686;51.716;7.016;2023-07-29T04:07:25;2.35;;;2.10;;
71836;SDS011;59686;51.716;7.016;2023-07-29T04:10:05;2.72;;;2.08;;
71836;SDS011;59686;51.716;7.016;2023-07-29T04:12:37;2.80;;;2.10;;
71836;SDS011;59686;51.716;7.016;2023-07-29T04:15:06;2.47;;;2.17;;
71836;SDS011;59686;51.716;7.016;2023-07-29T04:17:32;2.40;;;2.15;;
71836;SDS011;59686;51.716;7.016;2023-07-29T04:20:04;3.10;;;2.45;;
71836;SDS011;59686;51.716;7.016;2023-07-29T04:22:30;2.30;;;2.10;;
71836;SDS011;59686;51.716;7.016;2023-07-29T04:24:56;2.40;;;2.20;;
71836;SDS011;59686;51.716;7.016;2023-07-29T04:27:21;2.35;;;2.13;;
71836;SDS011;59686;51.716;7.016;2023-07-29T04:29:50;3.08;;;2.30;;
71836;SDS011;59686;51.716;7.016;2023-07-29T04:32:15;2.78;;;2.58;;
71836;SDS011;59686;51.716;7.016;2023-07-29T04:34:41;2.72;;;2.15;;
71836;SDS011;59686;51.716;7.016;2023-07-29T04:37:12;2.40;;;2.20;;
71836;SDS011;59686;51.716;7.016;2023-07-29T04:39:38;2.13;;;1.92;;
71836;SDS011;59686;51.716;7.016;2023-07-29T04:42:13;2.25;;;2.05;;
71836;SDS011;59686;51.716;7.016;2023-07-29T04:44:39;2.55;;;2.10;;
71836;SDS011;59686;51.716;7.016;2023-07-29T04:50:27;2.10;;;1.90;;
71836;SDS011;59686;51.716;7.016;2023-07-29T04:52:53;2.20;;;2.00;;
71836;SDS011;59686;51.716;7.016;2023-07-29T04:55:19;1.90;;;1.80;;
71836;SDS011;59686;51.716;7.016;2023-07-29T04:57:44;2.40;;;1.85;;
71836;SDS011;59686;51.716;7.016;2023-07-29T05:00:15;3.08;;;2.30;;
71836;SDS011;59686;51.716;7.016;2023-07-29T05:02:41;2.00;;;1.85;;
71836;SDS011;59686;51.716;7.016;2023-07-29T05:05:07;2.15;;;1.95;;
71836;SDS011;59686;51.716;7.016;2023-07-29T05:07:38;2.30;;;2.00;;
71836;SDS011;59686;51.716;7.016;2023-07-29T05:10:04;2.35;;;1.98;;
71836;SDS011;59686;51.716;7.016;2023-07-29T05:12:30;2.72;;;2.20;;
71836;SDS011;59686;51.716;7.016;2023-07-29T05:14:58;2.33;;;2.13;;
71836;SDS011;59686;51.716;7.016;2023-07-29T05:17:23;2.20;;;2.00;;
71836;SDS011;59686;51.716;7.016;2023-07-29T05:19:49;2.72;;;2.25;;
71836;SDS011;59686;51.716;7.016;2023-07-29T05:22:15;2.50;;;2.30;;
71836;SDS011;59686;51.716;7.016;2023-07-29T05:24:40;3.28;;;2.50;;
71836;SDS011;59686;51.716;7.016;2023-07-29T05:27:08;2.97;;;2.67;;
71836;SDS011;59686;51.716;7.016;2023-07-29T05:29:34;2.65;;;2.45;;
71836;SDS011;59686;51.716;7.016;2023-07-29T05:31:59;3.08;;;2.60;;
71836;SDS011;59686;51.716;7.016;2023-07-29T05:34:26;2.78;;;2.42;;
71836;SDS011;59686;51.716;7.016;2023-07-29T05:36:52;2.58;;;2.38;;
71836;SDS011;59686;51.716;7.016;2023-07-29T05:39:19;2.70;;;2.50;;
71836;SDS011;59686;51.716;7.016;2023-07-29T05:41:45;2.50;;;2.30;;
71836;SDS011;59686;51.716;7.016;2023-07-29T05:44:12;2.67;;;2.47;;
71836;SDS011;59686;51.716;7.016;2023-07-29T05:46:38;2.55;;;2.35;;
71836;SDS011;59686;51.716;7.016;2023-07-29T05:49:06;2.50;;;2.30;;
71836;SDS011;59686;51.716;7.016;2023-07-29T05:51:34;2.95;;;2.35;;
71836;SDS011;59686;51.716;7.016;2023-07-29T05:54:00;2.88;;;2.35;;
71836;SDS011;59686;51.716;7.016;2023-07-29T05:56:43;2.60;;;2.40;;
71836;SDS011;59686;51.716;7.016;2023-07-29T05:59:08;2.35;;;2.15;;
71836;SDS011;59686;51.716;7.016;2023-07-29T06:01:35;2.80;;;2.60;;
71836;SDS011;59686;51.716;7.016;2023-07-29T06:04:01;2.70;;;2.50;;
71836;SDS011;59686;51.716;7.016;2023-07-29T06:06:27;2.83;;;2.47;;
71836;SDS011;59686;51.716;7.016;2023-07-29T06:08:53;2.70;;;2.50;;
71836;SDS011;59686;51.716;7.016;2023-07-29T06:11:18;3.17;;;2.83;;
71836;SDS011;59686;51.716;7.016;2023-07-29T06:13:45;3.10;;;2.80;;
71836;SDS011;59686;51.716;7.016;2023-07-29T06:16:15;3.28;;;2.80;;
71836;SDS011;59686;51.716;7.016;2023-07-29T06:18:41;2.97;;;2.67;;
71836;SDS011;59686;51.716;7.016;2023-07-29T06:21:07;3.03;;;2.72;;
71836;SDS011;59686;51.716;7.016;2023-07-29T06:23:36;2.65;;;2.45;;
71836;SDS011;59686;51.716;7.016;2023-07-29T06:26:02;3.53;;;3.20;;
71836;SDS011;59686;51.716;7.016;2023-07-29T06:28:28;3.10;;;2.80;;
71836;SDS011;59686;51.716;7.016;2023-07-29T06:30:54;3.88;;;3.28;;
71836;SDS011;59686;51.716;7.016;2023-07-29T06:33:19;3.83;;;3.20;;
71836;SDS011;59686;51.716;7.016;2023-07-29T06:35:45;3.58;;;3.25;;
71836;SDS011;59686;51.716;7.016;2023-07-29T06:38:11;3.38;;;3.10;;
71836;SDS011;59686;51.716;7.016;2023-07-29T06:40:36;3.38;;;3.08;;
71836;SDS011;59686;51.716;7.016;2023-07-29T06:43:02;3.95;;;2.92;;
71836;SDS011;59686;51.716;7.016;2023-07-29T06:45:28;3.40;;;3.03;;
71836;SDS011;59686;51.716;7.016;2023-07-29T06:47:53;3.63;;;3.33;;
71836;SDS011;59686;51.716;7.016;2023-07-29T06:50:19;3.40;;;2.83;;
71836;SDS011;59686;51.716;7.016;2023-07-29T06:52:45;3.25;;;2.83;;
71836;SDS011;59686;51.716;7.016;2023-07-29T06:55:10;4.30;;;3.10;;
71836;SDS011;59686;51.716;7.016;2023-07-29T06:57:37;4.57;;;2.97;;
71836;SDS011;59686;51.716;7.016;2023-07-29T07:00:03;2.80;;;2.60;;
71836;SDS011;59686;51.716;7.016;2023-07-29T07:02:29;2.83;;;2.60;;
71836;SDS011;59686;51.716;7.016;2023-07-29T07:04:55;2.95;;;2.67;;
71836;SDS011;59686;51.716;7.016;2023-07-29T07:07:21;4.85;;;2.45;;
71836;SDS011;59686;51.716;7.016;2023-07-29T07:09:46;3.17;;;2.88;;
71836;SDS011;59686;51.716;7.016;2023-07-29T07:12:12;3.45;;;2.72;;
71836;SDS011;59686;51.716;7.016;2023-07-29T07:14:38;3.50;;;2.42;;
71836;SDS011;59686;51.716;7.016;2023-07-29T07:17:04;3.03;;;2.67;;
71836;SDS011;59686;51.716;7.016;2023-07-29T07:19:30;2.95;;;2.60;;
71836;SDS011;59686;51.716;7.016;2023-07-29T07:21:55;2.40;;;2.20;;
71836;SDS011;59686;51.716;7.016;2023-07-29T07:24:25;2.47;;;2.28;;
71836;SDS011;59686;51.716;7.016;2023-07-29T07:26:51;2.45;;;2.20;;
71836;SDS011;59686;51.716;7.016;2023-07-29T07:29:16;2.55;;;2.35;;
71836;SDS011;59686;51.716;7.016;2023-07-29T07:31:46;2.97;;;2.10;;
71836;SDS011;59686;51.716;7.016;2023-07-29T07:34:16;2.60;;;2.20;;
71836;SDS011;59686;51.716;7.016;2023-07-29T07:36:42;2.95;;;2.55;;
71836;SDS011;59686;51.716;7.016;2023-07-29T07:39:08;2.53;;;2.33;;
71836;SDS011;59686;51.716;7.016;2023-07-29T07:41:36;2.25;;;2.05;;
71836;SDS011;59686;51.716;7.016;2023-07-29T07:44:02;3.17;;;2.25;;
71836;SDS011;59686;51.716;7.016;2023-07-29T07:46:28;3.13;;;2.20;;
71836;SDS011;59686;51.716;7.016;2023-07-29T07:48:54;2.42;;;2.20;;
71836;SDS011;59686;51.716;7.016;2023-07-29T07:51:20;2.55;;;2.30;;
71836;SDS011;59686;51.716;7.016;2023-07-29T07:53:45;2.42;;;2.20;;
71836;SDS011;59686;51.716;7.016;2023-07-29T07:56:11;2.90;;;2.22;;
71836;SDS011;59686;51.716;7.016;2023-07-29T07:58:37;2.08;;;1.90;;
71836;SDS011;59686;51.716;7.016;2023-07-29T08:01:08;3.28;;;2.10;;
71836;SDS011;59686;51.716;7.016;2023-07-29T08:03:37;4.32;;;2.45;;
71836;SDS011;59686;51.716;7.016;2023-07-29T08:06:03;3.17;;;2.33;;
71836;SDS011;59686;51.716;7.016;2023-07-29T08:08:29;4.10;;;2.05;;
71836;SDS011;59686;51.716;7.016;2023-07-29T08:10:56;2.33;;;1.73;;
71836;SDS011;59686;51.716;7.016;2023-07-29T08:13:22;2.35;;;1.85;;
71836;SDS011;59686;51.716;7.016;2023-07-29T08:15:49;2.85;;;1.70;;
71836;SDS011;59686;51.716;7.016;2023-07-29T08:18:17;2.08;;;1.88;;
71836;SDS011;59686;51.716;7.016;2023-07-29T08:20:56;2.20;;;1.90;;
71836;SDS011;59686;51.716;7.016;2023-07-29T08:23:26;3.17;;;1.95;;
71836;SDS011;59686;51.716;7.016;2023-07-29T08:25:56;1.73;;;1.60;;
71836;SDS011;59686;51.716;7.016;2023-07-29T08:28:26;2.97;;;1.90;;
71836;SDS011;59686;51.716;7.016;2023-07-29T08:30:58;2.00;;;1.80;;
71836;SDS011;59686;51.716;7.016;2023-07-29T08:33:23;2.42;;;2.00;;
71836;SDS011;59686;51.716;7.016;2023-07-29T08:35:52;2.63;;;1.60;;
71836;SDS011;59686;51.716;7.016;2023-07-29T08:38:20;2.42;;;1.73;;
71836;SDS011;59686;51.716;7.016;2023-07-29T08:41:13;1.80;;;1.70;;
71836;SDS011;59686;51.716;7.016;2023-07-29T08:43:43;2.03;;;1.50;;
71836;SDS011;59686;51.716;7.016;2023-07-29T08:46:14;2.45;;;1.65;;
71836;SDS011;59686;51.716;7.016;2023-07-29T08:48:52;1.73;;;1.60;;
71836;SDS011;59686;51.716;7.016;2023-07-29T08:51:19;1.60;;;1.33;;
71836;SDS011;59686;51.716;7.016;2023-07-29T08:53:47;1.83;;;1.60;;
71836;SDS011;59686;51.716;7.016;2023-07-29T08:56:14;2.90;;;1.73;;
71836;SDS011;59686;51.716;7.016;2023-07-29T08:58:40;1.85;;;1.60;;
71836;SDS011;59686;51.716;7.016;2023-07-29T09:01:08;1.80;;;1.70;;
71836;SDS011;59686;51.716;7.016;2023-07-29T09:03:34;1.70;;;1.60;;
71836;SDS011;59686;51.716;7.016;2023-07-29T09:06:01;2.03;;;1.50;;
71836;SDS011;59686;51.716;7.016;2023-07-29T09:08:28;1.85;;;1.40;;
71836;SDS011;59686;51.716;7.016;2023-07-29T09:10:54;1.98;;;1.58;;
71836;SDS011;59686;51.716;7.016;2023-07-29T09:13:20;1.60;;;1.50;;
71836;SDS011;59686;51.716;7.016;2023-07-29T09:15:47;1.50;;;1.40;;
71836;SDS011;59686;51.716;7.016;2023-07-29T09:18:16;3.22;;;1.67;;
71836;SDS011;59686;51.716;7.016;2023-07-29T09:20:45;2.42;;;1.40;;
71836;SDS011;59686;51.716;7.016;2023-07-29T09:23:13;1.40;;;1.30;;
71836;SDS011;59686;51.716;7.016;2023-07-29T09:25:39;2.30;;;1.48;;
71836;SDS011;59686;51.716;7.016;2023-07-29T09:28:12;2.10;;;1.58;;
71836;SDS011;59686;51.716;7.016;2023-07-29T09:30:39;1.80;;;1.50;;
71836;SDS011;59686;51.716;7.016;2023-07-29T09:33:06;2.95;;;1.80;;
71836;SDS011;59686;51.716;7.016;2023-07-29T09:35:33;1.80;;;1.70;;
71836;SDS011;59686;51.716;7.016;2023-07-29T09:38:01;3.22;;;1.50;;
71836;SDS011;59686;51.716;7.016;2023-07-29T09:40:33;1.58;;;1.48;;
71836;SDS011;59686;51.716;7.016;2023-07-29T09:43:01;1.65;;;1.40;;
71836;SDS011;59686;51.716;7.016;2023-07-29T09:45:27;2.05;;;1.35;;
71836;SDS011;59686;51.716;7.016;2023-07-29T09:47:53;1.42;;;1.13;;
71836;SDS011;59686;51.716;7.016;2023-07-29T09:50:23;1.70;;;1.40;;
71836;SDS011;59686;51.716;7.016;2023-07-29T09:52:50;1.40;;;1.30;;
71836;SDS011;59686;51.716;7.016;2023-07-29T09:55:17;1.88;;;1.60;;
71836;SDS011;59686;51.716;7.016;2023-07-29T09:57:46;4.38;;;1.50;;
71836;SDS011;59686;51.716;7.016;2023-07-29T10:00:12;2.08;;;1.70;;
71836;SDS011;59686;51.716;7.016;2023-07-29T10:02:39;2.30;;;1.77;;
71836;SDS011;59686;51.716;7.016;2023-07-29T10:05:06;3.05;;;1.70;;
71836;SDS011;59686;51.716;7.016;2023-07-29T10:07:39;1.83;;;1.60;;
71836;SDS011;59686;51.716;7.016;2023-07-29T10:10:06;2.60;;;1.60;;
71836;SDS011;59686;51.716;7.016;2023-07-29T10:12:33;1.77;;;1.67;;
71836;SDS011;59686;51.716;7.016;2023-07-29T10:15:01;2.97;;;1.70;;
71836;SDS011;59686;51.716;7.016;2023-07-29T10:17:38;3.00;;;1.95;;
71836;SDS011;59686;51.716;7.016;2023-07-29T10:20:04;2.13;;;1.60;;
71836;SDS011;59686;51.716;7.016;2023-07-29T10:22:33;2.20;;;1.90;;
71836;SDS011;59686;51.716;7.016;2023-07-29T10:25:10;3.53;;;1.98;;
71836;SDS011;59686;51.716;7.016;2023-07-29T10:30:18;1.63;;;1.52;;
71836;SDS011;59686;51.716;7.016;2023-07-29T10:32:46;1.90;;;1.65;;
71836;SDS011;59686;51.716;7.016;2023-07-29T10:35:16;1.88;;;1.50;;
71836;SDS011;59686;51.716;7.016;2023-07-29T10:37:42;1.83;;;1.45;;
71836;SDS011;59686;51.716;7.016;2023-07-29T10:40:14;3.15;;;1.65;;
71836;SDS011;59686;51.716;7.016;2023-07-29T10:42:58;2.55;;;1.38;;
71836;SDS011;59686;51.716;7.016;2023-07-29T10:45:38;2.25;;;1.73;;
71836;SDS011;59686;51.716;7.016;2023-07-29T10:50:37;3.47;;;1.50;;
71836;SDS011;59686;51.716;7.016;2023-07-29T10:53:06;1.67;;;1.58;;
71836;SDS011;59686;51.716;7.016;2023-07-29T10:55:33;1.95;;;1.75;;
71836;SDS011;59686;51.716;7.016;2023-07-29T10:58:13;4.75;;;1.90;;
71836;SDS011;59686;51.716;7.016;2023-07-29T11:00:49;3.20;;;1.92;;
71836;SDS011;59686;51.716;7.016;2023-07-29T11:03:15;3.47;;;1.70;;
71836;SDS011;59686;51.716;7.016;2023-07-29T11:08:29;2.85;;;1.60;;
71836;SDS011;59686;51.716;7.016;2023-07-29T11:11:09;2.95;;;1.85;;
71836;SDS011;59686;51.716;7.016;2023-07-29T11:13:37;4.32;;;1.90;;
71836;SDS011;59686;51.716;7.016;2023-07-29T11:16:04;2.42;;;1.50;;
71836;SDS011;59686;51.716;7.016;2023-07-29T11:18:31;1.92;;;1.70;;
71836;SDS011;59686;51.716;7.016;2023-07-29T11:21:02;2.03;;;1.80;;
71836;SDS011;59686;51.716;7.016;2023-07-29T11:23:32;2.13;;;1.70;;
71836;SDS011;59686;51.716;7.016;2023-07-29T11:26:00;3.65;;;2.00;;
71836;SDS011;59686;51.716;7.016;2023-07-29T11:28:27;1.70;;;1.60;;
71836;SDS011;59686;51.716;7.016;2023-07-29T11:30:53;3.17;;;1.90;;
71836;SDS011;59686;51.716;7.016;2023-07-29T11:33:25;1.90;;;1.60;;
71836;SDS011;59686;51.716;7.016;2023-07-29T11:35:53;2.42;;;1.60;;
71836;SDS011;59686;51.716;7.016;2023-07-29T11:38:20;2.15;;;1.83;;
71836;SDS011;59686;51.716;7.016;2023-07-29T11:40:58;2.50;;;1.70;;
71836;SDS011;59686;51.716;7.016;2023-07-29T11:43:26;3.88;;;1.30;;
71836;SDS011;59686;51.716;7.016;2023-07-29T11:45:52;2.55;;;1.40;;
71836;SDS011;59686;51.716;7.016;2023-07-29T11:48:18;1.90;;;1.52;;
71836;SDS011;59686;51.716;7.016;2023-07-29T11:50:55;1.55;;;1.45;;
71836;SDS011;59686;51.716;7.016;2023-07-29T11:53:22;2.22;;;1.60;;
71836;SDS011;59686;51.716;7.016;2023-07-29T11:55:52;2.00;;;1.80;;
71836;SDS011;59686;51.716;7.016;2023-07-29T11:58:18;2.03;;;1.83;;
71836;SDS011;59686;51.716;7.016;2023-07-29T12:00:46;1.63;;;1.52;;
71836;SDS011;59686;51.716;7.016;2023-07-29T12:03:12;7.93;;;1.80;;
71836;SDS011;59686;51.716;7.016;2023-07-29T12:05:40;6.25;;;2.13;;
71836;SDS011;59686;51.716;7.016;2023-07-29T12:08:06;15.02;;;2.72;;
71836;SDS011;59686;51.716;7.016;2023-07-29T12:10:34;11.00;;;2.80;;
71836;SDS011;59686;51.716;7.016;2023-07-29T12:13:00;16.58;;;2.50;;
71836;SDS011;59686;51.716;7.016;2023-07-29T12:15:28;16.85;;;2.47;;
71836;SDS011;59686;51.716;7.016;2023-07-29T12:17:55;13.40;;;1.98;;
71836;SDS011;59686;51.716;7.016;2023-07-29T12:20:21;6.88;;;1.90;;
71836;SDS011;59686;51.716;7.016;2023-07-29T12:22:55;5.35;;;1.80;;
71836;SDS011;59686;51.716;7.016;2023-07-29T12:25:21;2.85;;;1.75;;
71836;SDS011;59686;51.716;7.016;2023-07-29T12:27:48;3.05;;;1.60;;
71836;SDS011;59686;51.716;7.016;2023-07-29T12:30:14;4.55;;;1.70;;
71836;SDS011;59686;51.716;7.016;2023-07-29T12:32:43;3.35;;;1.80;;
71836;SDS011;59686;51.716;7.016;2023-07-29T12:35:10;5.78;;;1.70;;
71836;SDS011;59686;51.716;7.016;2023-07-29T12:37:36;5.05;;;1.70;;
71836;SDS011;59686;51.716;7.016;2023-07-29T12:40:03;17.35;;;3.00;;
71836;SDS011;59686;51.716;7.016;2023-07-29T12:42:29;16.33;;;2.88;;
71836;SDS011;59686;51.716;7.016;2023-07-29T12:44:55;11.05;;;2.75;;
71836;SDS011;59686;51.716;7.016;2023-07-29T12:47:23;2.55;;;1.60;;
71836;SDS011;59686;51.716;7.016;2023-07-29T12:49:49;6.13;;;2.00;;
71836;SDS011;59686;51.716;7.016;2023-07-29T12:52:14;10.70;;;2.08;;
71836;SDS011;59686;51.716;7.016;2023-07-29T12:54:40;7.40;;;2.13;;
71836;SDS011;59686;51.716;7.016;2023-07-29T12:57:09;8.85;;;2.00;;
71836;SDS011;59686;51.716;7.016;2023-07-29T12:59:40;6.75;;;1.80;;
71836;SDS011;59686;51.716;7.016;2023-07-29T13:02:05;4.13;;;2.00;;
71836;SDS011;59686;51.716;7.016;2023-07-29T13:04:31;5.25;;;2.10;;
71836;SDS011;59686;51.716;7.016;2023-07-29T13:06:57;4.30;;;2.13;;
71836;SDS011;59686;51.716;7.016;2023-07-29T13:09:24;4.82;;;2.10;;
71836;SDS011;59686;51.716;7.016;2023-07-29T13:11:50;7.75;;;2.08;;
71836;SDS011;59686;51.716;7.016;2023-07-29T13:14:15;2.28;;;1.73;;
71836;SDS011;59686;51.716;7.016;2023-07-29T13:16:41;3.88;;;1.67;;
71836;SDS011;59686;51.716;7.016;2023-07-29T13:19:07;2.40;;;1.90;;
71836;SDS011;59686;51.716;7.016;2023-07-29T13:21:33;3.22;;;1.73;;
71836;SDS011;59686;51.716;7.016;2023-07-29T13:23:58;4.38;;;1.83;;
71836;SDS011;59686;51.716;7.016;2023-07-29T13:26:24;4.30;;;1.90;;
71836;SDS011;59686;51.716;7.016;2023-07-29T13:28:53;10.98;;;2.33;;
71836;SDS011;59686;51.716;7.016;2023-07-29T13:31:20;2.20;;;1.70;;
71836;SDS011;59686;51.716;7.016;2023-07-29T13:33:46;6.57;;;2.20;;
71836;SDS011;59686;51.716;7.016;2023-07-29T13:36:12;6.10;;;2.20;;
71836;SDS011;59686;51.716;7.016;2023-07-29T13:38:37;6.85;;;1.90;;
71836;SDS011;59686;51.716;7.016;2023-07-29T13:41:03;5.22;;;2.17;;
71836;SDS011;59686;51.716;7.016;2023-07-29T13:43:29;4.40;;;2.28;;
71836;SDS011;59686;51.716;7.016;2023-07-29T13:45:57;4.72;;;2.00;;
71836;SDS011;59686;51.716;7.016;2023-07-29T13:48:23;3.58;;;1.90;;
71836;SDS011;59686;51.716;7.016;2023-07-29T13:50:49;2.75;;;2.00;;
71836;SDS011;59686;51.716;7.016;2023-07-29T13:53:16;2.08;;;1.50;;
71836;SDS011;59686;51.716;7.016;2023-07-29T13:55:42;2.20;;;2.00;;
71836;SDS011;59686;51.716;7.016;2023-07-29T13:58:10;1.92;;;1.73;;
71836;SDS011;59686;51.716;7.016;2023-07-29T14:00:38;3.22;;;1.95;;
71836;SDS011;59686;51.716;7.016;2023-07-29T14:03:04;2.30;;;2.10;;
71836;SDS011;59686;51.716;7.016;2023-07-29T14:05:30;4.07;;;2.00;;
71836;SDS011;59686;51.716;7.016;2023-07-29T14:07:56;3.13;;;2.20;;
71836;SDS011;59686;51.716;7.016;2023-07-29T14:10:22;2.85;;;1.88;;
71836;SDS011;59686;51.716;7.016;2023-07-29T14:12:49;3.00;;;1.92;;
71836;SDS011;59686;51.716;7.016;2023-07-29T14:15:15;1.95;;;1.73;;
71836;SDS011;59686;51.716;7.016;2023-07-29T14:17:41;2.75;;;1.80;;
71836;SDS011;59686;51.716;7.016;2023-07-29T14:20:07;2.40;;;1.70;;
71836;SDS011;59686;51.716;7.016;2023-07-29T14:22:33;3.38;;;2.00;;
71836;SDS011;59686;51.716;7.016;2023-07-29T14:25:00;3.90;;;1.80;;
71836;SDS011;59686;51.716;7.016;2023-07-29T14:27:26;2.10;;;1.90;;
71836;SDS011;59686;51.716;7.016;2023-07-29T14:29:51;1.88;;;1.70;;
71836;SDS011;59686;51.716;7.016;2023-07-29T14:32:20;2.90;;;1.83;;
71836;SDS011;59686;51.716;7.016;2023-07-29T14:34:46;2.13;;;1.90;;
71836;SDS011;59686;51.716;7.016;2023-07-29T14:37:12;2.83;;;1.77;;
71836;SDS011;59686;51.716;7.016;2023-07-29T14:39:37;1.70;;;1.60;;
71836;SDS011;59686;51.716;7.016;2023-07-29T14:42:03;1.85;;;1.70;;
71836;SDS011;59686;51.716;7.016;2023-07-29T14:44:29;2.35;;;1.73;;
71836;SDS011;59686;51.716;7.016;2023-07-29T14:46:55;2.65;;;1.70;;
71836;SDS011;59686;51.716;7.016;2023-07-29T14:49:20;2.80;;;1.90;;
71836;SDS011;59686;51.716;7.016;2023-07-29T14:51:47;2.30;;;1.70;;
71836;SDS011;59686;51.716;7.016;2023-07-29T14:54:12;1.90;;;1.70;;
71836;SDS011;59686;51.716;7.016;2023-07-29T14:56:38;2.38;;;1.73;;
71836;SDS011;59686;51.716;7.016;2023-07-29T14:59:04;3.28;;;1.90;;
71836;SDS011;59686;51.716;7.016;2023-07-29T15:01:30;3.00;;;1.70;;
71836;SDS011;59686;51.716;7.016;2023-07-29T15:03:55;1.95;;;1.52;;
71836;SDS011;59686;51.716;7.016;2023-07-29T15:06:21;1.92;;;1.55;;
71836;SDS011;59686;51.716;7.016;2023-07-29T15:08:47;3.00;;;1.70;;
71836;SDS011;59686;51.716;7.016;2023-07-29T15:11:13;2.25;;;1.80;;
71836;SDS011;59686;51.716;7.016;2023-07-29T15:13:38;2.33;;;1.60;;